createdAt,value
2023-05-12T00:02:05.810Z,6.25
2023-05-12T00:04:39.679Z,5.90
2023-05-12T00:07:07.474Z,6.90
2023-05-12T00:09:41.643Z,6.75
2023-05-12T00:12:09.271Z,6.57
2023-05-12T00:17:10.581Z,6.75
2023-05-12T00:19:57.524Z,6.70
2023-05-12T00:22:33.521Z,7.53
2023-05-12T00:25:00.615Z,6.97
2023-05-12T00:27:27.912Z,7.30
2023-05-12T00:30:01.530Z,7.22
2023-05-12T00:32:28.733Z,6.55
2023-05-12T00:35:03.734Z,7.93
2023-05-12T00:37:30.976Z,8.05
2023-05-12T00:39:58.071Z,7.47
2023-05-12T00:42:31.677Z,8.02
2023-05-12T00:44:58.950Z,8.00
2023-05-12T00:47:26.118Z,8.38
2023-05-12T00:49:59.706Z,7.05
2023-05-12T00:52:27.882Z,7.43
2023-05-12T00:54:55.427Z,7.43
2023-05-12T00:57:29.601Z,7.18
2023-05-12T01:00:03.530Z,6.80
2023-05-12T01:02:37.672Z,6.90
2023-05-12T01:05:12.571Z,7.63
2023-05-12T01:07:46.530Z,7.28
2023-05-12T01:10:26.536Z,7.03
2023-05-12T01:12:53.616Z,6.85
2023-05-12T01:15:27.568Z,6.93
2023-05-12T01:17:58.161Z,6.43
2023-05-12T01:20:39.533Z,7.28
2023-05-12T01:23:06.905Z,7.40
2023-05-12T01:25:41.689Z,8.40
2023-05-12T01:28:08.807Z,8.52
2023-05-12T01:30:37.805Z,7.68
2023-05-12T01:33:11.530Z,8.73
2023-05-12T01:35:38.705Z,8.20
2023-05-12T01:38:12.597Z,7.63
2023-05-12T01:40:39.839Z,8.05
2023-05-12T01:43:07.014Z,8.90
2023-05-12T01:45:40.541Z,7.78
2023-05-12T01:48:07.870Z,7.70
2023-05-12T01:50:41.549Z,8.20
2023-05-12T01:53:10.536Z,7.28
2023-05-12T01:55:44.564Z,7.70
2023-05-12T01:58:11.900Z,7.57
2023-05-12T02:00:45.631Z,6.45
2023-05-12T02:03:13.055Z,7.70
2023-05-12T02:05:40.214Z,7.15
2023-05-12T02:08:13.576Z,7.45
2023-05-12T02:10:40.824Z,7.57
2023-05-12T02:13:15.532Z,7.97
2023-05-12T02:15:42.678Z,8.32
2023-05-12T02:18:16.557Z,8.45
2023-05-12T02:20:50.708Z,8.15
2023-05-12T02:23:24.570Z,7.60
2023-05-12T02:25:51.719Z,8.50
2023-05-12T02:28:25.699Z,8.45
2023-05-12T02:30:53.173Z,7.97
2023-05-12T02:33:21.284Z,8.50
2023-05-12T02:35:54.571Z,8.02
2023-05-12T02:38:21.879Z,8.77
2023-05-12T02:40:55.613Z,7.55
2023-05-12T02:43:22.890Z,8.13
2023-05-12T02:45:50.116Z,7.50
2023-05-12T02:48:23.581Z,7.38
2023-05-12T02:50:50.936Z,7.47
2023-05-12T02:53:24.705Z,7.93
2023-05-12T02:55:52.142Z,7.07
2023-05-12T02:58:19.434Z,7.32
2023-05-12T03:01:03.006Z,7.70
2023-05-12T03:03:34.414Z,7.38
2023-05-12T03:08:36.369Z,6.78
2023-05-12T03:13:37.623Z,6.82
2023-05-12T03:16:04.881Z,6.72
2023-05-12T03:18:32.085Z,7.32
2023-05-12T03:21:12.592Z,7.70
2023-05-12T03:23:46.682Z,7.72
2023-05-12T03:26:20.713Z,8.23
2023-05-12T03:28:47.843Z,8.27
2023-05-12T03:31:15.068Z,8.90
2023-05-12T03:33:48.622Z,8.20
2023-05-12T03:36:15.804Z,7.82
2023-05-12T03:38:43.057Z,7.63
2023-05-12T03:41:16.625Z,7.28
2023-05-12T03:43:43.889Z,7.63
2023-05-12T03:46:18.672Z,8.40
2023-05-12T03:48:45.956Z,7.53
2023-05-12T03:51:13.133Z,8.20
2023-05-12T03:53:51.595Z,7.32
2023-05-12T03:56:18.774Z,7.53
2023-05-12T03:58:55.675Z,8.27
2023-05-12T04:01:29.739Z,7.47
2023-05-12T04:04:03.829Z,7.47
2023-05-12T04:06:31.756Z,6.45
2023-05-12T04:08:59.462Z,7.22
2023-05-12T04:14:06.868Z,6.50
2023-05-12T04:16:35.546Z,7.35
2023-05-12T04:19:09.733Z,6.65
2023-05-12T04:21:49.594Z,6.93
2023-05-12T04:24:23.589Z,6.88
2023-05-12T04:26:57.655Z,7.10
2023-05-12T04:29:24.758Z,6.63
2023-05-12T04:31:51.981Z,7.43
2023-05-12T04:34:25.585Z,7.70
2023-05-12T04:36:53.063Z,6.68
2023-05-12T04:39:26.691Z,6.93
2023-05-12T04:41:53.860Z,7.00
2023-05-12T04:44:22.235Z,6.43
2023-05-12T04:46:59.600Z,6.30
2023-05-12T04:49:26.899Z,6.70
2023-05-12T04:52:00.660Z,7.28
2023-05-12T04:54:28.075Z,6.75
2023-05-12T04:56:55.155Z,7.45
2023-05-12T04:59:28.730Z,6.70
2023-05-12T05:01:56.053Z,6.45
2023-05-12T05:04:23.448Z,6.88
2023-05-12T05:06:57.616Z,7.05
2023-05-12T05:09:24.836Z,6.43
2023-05-12T05:11:58.740Z,6.85
2023-05-12T05:14:26.261Z,5.95
2023-05-12T05:16:54.012Z,6.75
2023-05-12T05:19:39.102Z,7.10
2023-05-12T05:22:21.736Z,6.30
2023-05-12T05:24:55.750Z,6.78
2023-05-12T05:27:22.998Z,6.43
2023-05-12T05:29:50.142Z,6.85
2023-05-12T05:32:23.662Z,6.95
2023-05-12T05:34:57.607Z,6.35
2023-05-12T05:37:31.619Z,7.10
2023-05-12T05:40:05.776Z,6.50
2023-05-12T05:42:32.876Z,6.95
2023-05-12T05:45:00.135Z,5.97
2023-05-12T05:47:34.786Z,5.70
2023-05-12T05:50:02.035Z,6.22
2023-05-12T05:52:29.207Z,5.10
2023-05-12T05:55:02.701Z,4.57
2023-05-12T05:57:32.730Z,4.80
2023-05-12T05:59:59.830Z,4.65
2023-05-12T06:02:33.784Z,4.43
2023-05-12T06:05:01.242Z,4.35
2023-05-12T06:07:34.644Z,4.18
2023-05-12T06:10:01.770Z,4.55
2023-05-12T06:12:29.138Z,4.40
2023-05-12T06:15:02.642Z,4.22
2023-05-12T06:17:32.041Z,3.97
2023-05-12T06:20:06.844Z,4.47
2023-05-12T06:22:42.323Z,3.92
2023-05-12T06:25:15.777Z,3.67
2023-05-12T06:27:42.987Z,3.50
2023-05-12T06:30:10.472Z,3.47
2023-05-12T06:32:44.704Z,3.60
2023-05-12T06:35:12.423Z,3.80
2023-05-12T06:40:13.645Z,3.80
2023-05-12T06:42:40.931Z,3.92
2023-05-12T06:45:14.772Z,3.28
2023-05-12T06:47:42.076Z,3.22
2023-05-12T06:50:09.429Z,3.38
2023-05-12T06:52:43.671Z,3.40
2023-05-12T06:55:10.925Z,3.33
2023-05-12T06:57:44.678Z,3.30
2023-05-12T07:00:13.104Z,3.30
2023-05-12T07:02:40.446Z,3.40
2023-05-12T07:05:14.642Z,3.20
2023-05-12T07:07:41.887Z,3.28
2023-05-12T07:10:15.651Z,3.15
2023-05-12T07:12:42.981Z,3.40
2023-05-12T07:15:16.686Z,3.47
2023-05-12T07:17:43.892Z,3.50
2023-05-12T07:20:24.805Z,3.38
2023-05-12T07:22:58.749Z,3.38
2023-05-12T07:25:32.949Z,3.05
2023-05-12T07:28:00.233Z,3.28
2023-05-12T07:30:27.444Z,3.17
2023-05-12T07:33:00.953Z,3.15
2023-05-12T07:35:28.369Z,3.08
2023-05-12T07:37:55.484Z,2.72
2023-05-12T07:40:28.671Z,3.22
2023-05-12T07:42:55.893Z,3.00
2023-05-12T07:45:31.671Z,3.10
2023-05-12T07:47:58.951Z,3.63
2023-05-12T07:50:26.289Z,3.30
2023-05-12T07:53:00.706Z,3.03
2023-05-12T07:55:30.036Z,2.88
2023-05-12T07:57:57.201Z,3.00
2023-05-12T08:00:30.808Z,2.78
2023-05-12T08:02:58.549Z,3.20
2023-05-12T08:05:25.883Z,2.95
2023-05-12T08:07:59.730Z,2.90
2023-05-12T08:10:29.762Z,3.03
2023-05-12T08:12:57.049Z,3.15
2023-05-12T08:15:30.695Z,2.97
2023-05-12T08:17:58.057Z,2.90
2023-05-12T08:20:31.726Z,3.20
2023-05-12T08:22:59.039Z,3.13
2023-05-12T08:25:28.264Z,3.05
2023-05-12T08:28:02.714Z,2.78
2023-05-12T08:30:30.002Z,3.65
2023-05-12T08:33:04.069Z,2.95
2023-05-12T08:35:31.376Z,3.33
2023-05-12T08:37:59.387Z,3.05
2023-05-12T08:40:34.705Z,3.00
2023-05-12T08:43:08.762Z,2.97
2023-05-12T08:45:45.694Z,3.42
2023-05-12T08:48:13.592Z,2.97
2023-05-12T08:50:48.679Z,3.10
2023-05-12T08:53:16.524Z,3.05
2023-05-12T08:57:09.513Z,3.00
2023-05-12T08:58:42.063Z,3.20
2023-05-12T09:01:18.825Z,2.90
2023-05-12T09:03:52.744Z,3.33
2023-05-12T09:06:26.707Z,3.08
2023-05-12T09:08:53.925Z,3.30
2023-05-12T09:11:29.717Z,2.88
2023-05-12T09:14:02.857Z,2.90
2023-05-12T09:16:37.719Z,3.42
2023-05-12T09:19:06.831Z,3.40
2023-05-12T09:21:48.884Z,3.47
2023-05-12T09:24:33.898Z,3.13
2023-05-12T09:27:07.824Z,3.10
2023-05-12T09:29:42.511Z,3.28
2023-05-12T09:32:21.716Z,3.70
2023-05-12T09:34:58.801Z,3.67
2023-05-12T09:37:37.744Z,3.17
2023-05-12T09:40:05.803Z,3.45
2023-05-12T09:42:33.836Z,3.03
2023-05-12T09:45:11.726Z,3.22
2023-05-12T09:47:45.759Z,3.17
2023-05-12T09:50:19.746Z,3.03
2023-05-12T09:52:46.843Z,3.38
2023-05-12T09:55:20.911Z,3.10
2023-05-12T09:57:48.161Z,3.03
2023-05-12T10:00:36.963Z,3.28
2023-05-12T10:03:11.999Z,3.78
2023-05-12T10:05:46.778Z,3.80
2023-05-12T10:08:15.519Z,3.50
2023-05-12T10:10:42.926Z,3.17
2023-05-12T10:15:49.094Z,3.50
2023-05-12T10:18:23.793Z,3.42
2023-05-12T10:20:58.775Z,3.53
2023-05-12T10:23:39.770Z,3.35
2023-05-12T10:26:07.431Z,3.60
2023-05-12T10:28:34.556Z,3.05
2023-05-12T10:31:07.794Z,3.22
2023-05-12T10:33:35.058Z,3.15
2023-05-12T10:36:08.986Z,3.40
2023-05-12T10:38:37.418Z,3.20
2023-05-12T10:41:12.721Z,3.40
2023-05-12T10:43:45.274Z,2.97
2023-05-12T10:46:26.782Z,3.35
2023-05-12T10:49:00.736Z,3.35
2023-05-12T10:51:37.786Z,3.40
2023-05-12T10:54:06.129Z,3.13
2023-05-12T10:56:49.048Z,3.53
2023-05-12T10:59:20.997Z,3.45
2023-05-12T11:02:05.569Z,3.30
2023-05-12T11:04:37.317Z,3.00
2023-05-12T11:07:14.364Z,3.17
2023-05-12T11:09:56.089Z,3.03
2023-05-12T11:12:33.160Z,3.15
2023-05-12T11:15:07.792Z,3.15
2023-05-12T11:17:35.287Z,3.35
2023-05-12T11:20:08.731Z,3.38
2023-05-12T11:22:43.354Z,3.30
2023-05-12T11:25:18.024Z,2.72
2023-05-12T11:27:51.370Z,3.25
2023-05-12T11:30:26.053Z,3.20
2023-05-12T11:33:02.802Z,3.03
2023-05-12T11:35:39.777Z,3.10
2023-05-12T11:38:23.026Z,3.25
2023-05-12T11:40:50.341Z,3.50
2023-05-12T11:43:27.797Z,2.97
2023-05-12T11:45:57.881Z,3.05
2023-05-12T11:48:39.777Z,3.15
2023-05-12T11:51:07.039Z,2.90
2023-05-12T11:53:41.819Z,2.78
2023-05-12T11:56:09.266Z,3.15
2023-05-12T11:58:42.915Z,3.05
2023-05-12T12:01:13.604Z,2.80
2023-05-12T12:03:55.025Z,2.88
2023-05-12T12:06:23.009Z,2.97
2023-05-12T12:08:53.938Z,2.70
2023-05-12T12:11:28.764Z,3.30
2023-05-12T12:13:56.922Z,2.92
2023-05-12T12:16:39.991Z,2.90
2023-05-12T12:19:08.749Z,3.00
2023-05-12T12:21:55.821Z,2.83
2023-05-12T12:24:23.244Z,2.95
2023-05-12T12:26:50.752Z,3.17
2023-05-12T12:29:24.807Z,3.03
2023-05-12T12:31:52.053Z,2.70
2023-05-12T12:36:53.322Z,2.70
2023-05-12T12:39:21.817Z,2.80
2023-05-12T12:41:55.814Z,2.88
2023-05-12T12:44:23.050Z,2.30
2023-05-12T12:46:56.859Z,2.60
2023-05-12T12:49:23.964Z,2.58
2023-05-12T12:51:51.188Z,2.47
2023-05-12T12:54:24.809Z,2.20
2023-05-12T12:56:51.965Z,2.50
2023-05-12T12:59:25.979Z,3.13
2023-05-12T13:01:53.315Z,2.20
2023-05-12T13:06:56.976Z,2.60
2023-05-12T13:09:24.506Z,2.45
2023-05-12T13:11:51.732Z,2.78
2023-05-12T13:14:25.804Z,2.85
2023-05-12T13:16:53.052Z,2.67
2023-05-12T13:22:00.795Z,2.42
2023-05-12T13:24:34.829Z,2.60
2023-05-12T13:27:02.066Z,2.50
2023-05-12T13:29:29.226Z,2.53
2023-05-12T13:32:02.825Z,2.35
2023-05-12T13:34:30.038Z,2.42
2023-05-12T13:37:03.844Z,2.50
2023-05-12T13:39:31.082Z,2.50
2023-05-12T13:41:58.278Z,2.58
2023-05-12T13:44:31.843Z,2.58
2023-05-12T13:46:58.995Z,2.80
2023-05-12T13:49:32.864Z,2.75
2023-05-12T13:52:00.114Z,2.22
2023-05-12T13:54:29.965Z,2.55
2023-05-12T13:57:03.850Z,2.25
2023-05-12T13:59:31.596Z,2.60
2023-05-12T14:02:06.035Z,2.53
2023-05-12T14:04:33.252Z,2.30
2023-05-12T14:07:00.345Z,2.72
2023-05-12T14:09:34.817Z,3.03
2023-05-12T14:12:02.532Z,2.50
2023-05-12T14:14:35.942Z,2.50
2023-05-12T14:17:03.122Z,3.17
2023-05-12T14:19:30.440Z,2.78
2023-05-12T14:24:46.155Z,2.70
2023-05-12T14:27:19.887Z,2.55
2023-05-12T14:29:47.046Z,2.95
2023-05-12T14:32:14.145Z,2.72
2023-05-12T14:34:47.847Z,2.50
2023-05-12T14:37:15.301Z,3.20
2023-05-12T14:39:48.969Z,2.30
2023-05-12T14:42:23.984Z,2.20
2023-05-12T14:44:57.919Z,2.63
2023-05-12T14:47:25.164Z,2.40
2023-05-12T14:52:32.849Z,3.13
2023-05-12T14:55:00.118Z,3.80
2023-05-12T15:00:01.356Z,3.28
2023-05-12T15:02:29.149Z,3.42
2023-05-12T15:05:02.865Z,3.80
2023-05-12T15:07:30.193Z,3.75
2023-05-12T15:12:31.640Z,3.63
2023-05-12T15:15:02.233Z,4.00
2023-05-12T15:17:37.028Z,3.53
2023-05-12T15:20:04.544Z,3.80
2023-05-12T15:22:44.942Z,4.05
2023-05-12T15:25:12.448Z,3.17
2023-05-12T15:27:39.589Z,3.80
2023-05-12T15:30:13.909Z,3.88
2023-05-12T15:32:41.286Z,3.30
2023-05-12T15:37:41.869Z,3.53
2023-05-12T15:40:09.465Z,3.95
2023-05-12T15:42:42.933Z,3.55
2023-05-12T15:45:10.512Z,4.10
2023-05-12T15:47:37.695Z,4.07
2023-05-12T15:50:11.883Z,3.88
2023-05-12T15:52:39.167Z,3.80
2023-05-12T15:55:12.922Z,3.58
2023-05-12T15:57:40.049Z,3.75
2023-05-12T16:00:08.734Z,3.72
2023-05-12T16:02:42.979Z,3.60
2023-05-12T16:05:10.326Z,3.80
2023-05-12T16:07:44.064Z,3.65
2023-05-12T16:10:11.362Z,3.42
2023-05-12T16:12:38.770Z,3.90
2023-05-12T16:17:39.111Z,3.70
2023-05-12T16:20:13.930Z,3.60
2023-05-12T16:22:48.695Z,3.92
2023-05-12T16:25:22.453Z,3.92
2023-05-12T16:27:50.058Z,3.58
2023-05-12T16:32:53.917Z,3.50
2023-05-12T16:35:21.423Z,3.60
2023-05-12T16:37:54.943Z,3.78
2023-05-12T16:40:22.110Z,3.72
2023-05-12T16:42:49.299Z,4.05
2023-05-12T16:45:23.225Z,4.18
2023-05-12T16:47:51.332Z,3.47
2023-05-12T16:50:25.033Z,3.90
2023-05-12T16:52:53.685Z,3.60
2023-05-12T16:55:21.239Z,4.13
2023-05-12T16:57:54.899Z,3.60
2023-05-12T17:00:22.334Z,3.58
2023-05-12T17:05:23.331Z,3.78
2023-05-12T17:10:24.907Z,3.33
2023-05-12T17:12:52.408Z,3.70
2023-05-12T17:17:53.462Z,3.63
2023-05-12T17:20:21.106Z,3.58
2023-05-12T17:22:57.954Z,3.92
2023-05-12T17:25:26.704Z,4.50
2023-05-12T17:27:55.143Z,3.80
2023-05-12T17:30:29.041Z,4.05
2023-05-12T17:32:56.342Z,4.00
2023-05-12T17:35:23.846Z,3.97
2023-05-12T17:38:03.940Z,3.92
2023-05-12T17:40:31.495Z,3.92
2023-05-12T17:45:32.507Z,4.20
2023-05-12T17:50:32.918Z,3.83
2023-05-12T17:53:00.181Z,4.00
2023-05-12T17:55:34.027Z,3.75
2023-05-12T17:58:01.272Z,3.65
2023-05-12T18:00:28.638Z,3.42
2023-05-12T18:03:02.139Z,4.03
2023-05-12T18:05:29.467Z,4.05
2023-05-12T18:08:02.967Z,4.35
2023-05-12T18:10:30.312Z,4.32
2023-05-12T18:12:57.774Z,4.25
2023-05-12T18:17:58.318Z,4.95
2023-05-12T18:20:26.259Z,4.50
2023-05-12T18:22:59.949Z,5.15
2023-05-12T18:25:28.280Z,4.97
2023-05-12T18:28:01.949Z,5.43
2023-05-12T18:30:29.393Z,5.18
2023-05-12T18:35:30.293Z,5.03
2023-05-12T18:37:57.599Z,5.78
2023-05-12T18:40:30.967Z,6.15
2023-05-12T18:42:58.613Z,6.40
2023-05-12T18:45:31.998Z,6.38
2023-05-12T18:47:59.233Z,6.60
2023-05-12T18:50:26.520Z,6.47
2023-05-12T18:52:59.961Z,6.65
2023-05-12T18:55:29.080Z,6.20
2023-05-12T18:58:03.025Z,6.45
2023-05-12T19:00:33.341Z,6.38
2023-05-12T19:03:00.549Z,5.80
2023-05-12T19:05:34.034Z,6.03
2023-05-12T19:08:01.902Z,5.68
2023-05-12T19:10:38.538Z,5.72
2023-05-12T19:13:06.856Z,6.25
2023-05-12T19:15:34.034Z,6.10
2023-05-12T19:18:08.043Z,6.25
2023-05-12T19:20:35.318Z,5.60
2023-05-12T19:23:09.020Z,5.78
2023-05-12T19:25:36.378Z,5.97
2023-05-12T19:28:04.637Z,5.70
2023-05-12T19:30:37.993Z,6.35
2023-05-12T19:33:05.204Z,5.60
2023-05-12T19:35:32.375Z,6.68
2023-05-12T19:38:05.979Z,6.07
2023-05-12T19:40:33.213Z,5.50
2023-05-12T19:43:07.123Z,5.93
2023-05-12T19:45:34.298Z,5.90
2023-05-12T19:48:01.509Z,6.18
2023-05-12T19:50:49.981Z,6.30
2023-05-12T19:53:24.128Z,5.75
2023-05-12T19:55:58.035Z,6.20
2023-05-12T19:58:25.123Z,6.22
2023-05-12T20:00:52.368Z,6.57
2023-05-12T20:03:26.074Z,6.15
2023-05-12T20:05:53.540Z,5.93
2023-05-12T20:08:27.242Z,6.15
2023-05-12T20:10:54.943Z,5.38
2023-05-12T20:13:22.072Z,5.03
2023-05-12T20:15:56.014Z,6.00
2023-05-12T20:18:23.725Z,5.75
2023-05-12T20:20:58.040Z,5.60
2023-05-12T20:23:32.265Z,5.40
2023-05-12T20:26:07.041Z,5.63
2023-05-12T20:28:34.295Z,5.60
2023-05-12T20:31:01.380Z,5.28
2023-05-12T20:33:34.987Z,5.35
2023-05-12T20:36:02.141Z,5.72
2023-05-12T20:38:36.093Z,5.18
2023-05-12T20:41:06.594Z,5.90
2023-05-12T20:43:34.005Z,5.43
2023-05-12T20:46:10.107Z,6.10
2023-05-12T20:48:37.471Z,5.45
2023-05-12T20:51:18.068Z,5.97
2023-05-12T20:53:45.223Z,6.47
2023-05-12T20:56:13.164Z,5.80
2023-05-12T20:58:47.045Z,6.22
2023-05-12T21:01:14.302Z,6.15
2023-05-12T21:03:42.025Z,6.82
2023-05-12T21:06:16.174Z,6.15
2023-05-12T21:08:43.515Z,6.00
2023-05-12T21:11:15.078Z,6.85
2023-05-12T21:13:49.035Z,6.13
2023-05-12T21:16:16.734Z,5.85
2023-05-12T21:18:51.179Z,6.82
2023-05-12T21:21:25.080Z,5.78
2023-05-12T21:24:05.065Z,6.32
2023-05-12T21:26:32.333Z,6.32
2023-05-12T21:29:02.866Z,6.47
2023-05-12T21:31:37.174Z,6.63
2023-05-12T21:34:04.487Z,7.00
2023-05-12T21:36:40.045Z,6.65
2023-05-12T21:39:07.327Z,7.00
2023-05-12T21:41:34.476Z,7.03
2023-05-12T21:44:10.384Z,6.43
2023-05-12T21:46:38.424Z,6.45
2023-05-12T21:49:05.729Z,6.97
2023-05-12T21:51:42.032Z,7.07
2023-05-12T21:54:09.395Z,6.53
2023-05-12T21:56:43.160Z,6.72
2023-05-12T21:59:10.530Z,6.32
2023-05-12T22:01:37.812Z,5.55
2023-05-12T22:04:12.087Z,6.22
2023-05-12T22:06:39.496Z,6.15
2023-05-12T22:09:13.058Z,6.70
2023-05-12T22:11:40.476Z,5.72
2023-05-12T22:14:07.570Z,6.15
2023-05-12T22:16:42.635Z,6.15
2023-05-12T22:19:10.323Z,6.85
2023-05-12T22:21:44.071Z,7.40
2023-05-12T22:24:18.100Z,7.10
2023-05-12T22:26:52.061Z,7.28
2023-05-12T22:29:26.053Z,7.55
2023-05-12T22:31:53.135Z,7.07
2023-05-12T22:34:27.430Z,7.10
2023-05-12T22:36:54.564Z,6.57
2023-05-12T22:39:21.755Z,6.75
2023-05-12T22:41:55.080Z,5.75
2023-05-12T22:44:22.287Z,5.82
2023-05-12T22:46:49.416Z,5.93
2023-05-12T22:49:23.050Z,6.03
2023-05-12T22:51:50.227Z,7.13
2023-05-12T22:54:24.182Z,6.57
2023-05-12T22:56:51.713Z,6.35
2023-05-12T22:59:18.849Z,6.05
2023-05-12T23:01:53.059Z,7.03
2023-05-12T23:04:20.437Z,7.45
2023-05-12T23:06:54.069Z,6.57
2023-05-12T23:09:21.507Z,8.27
2023-05-12T23:11:48.708Z,6.85
2023-05-12T23:14:22.042Z,7.68
2023-05-12T23:16:56.146Z,7.38
2023-05-12T23:19:30.205Z,7.70
2023-05-12T23:21:57.427Z,7.60
2023-05-12T23:24:24.524Z,8.02
2023-05-12T23:26:58.073Z,7.40
2023-05-12T23:29:25.249Z,8.00
2023-05-12T23:31:52.410Z,7.28
2023-05-12T23:34:26.357Z,7.50
2023-05-12T23:36:53.557Z,8.15
2023-05-12T23:39:27.120Z,8.15
2023-05-12T23:41:54.288Z,7.50
2023-05-12T23:44:21.386Z,7.68
2023-05-12T23:46:55.084Z,7.75
2023-05-12T23:49:22.268Z,7.70
2023-05-12T23:51:56.095Z,7.97
2023-05-12T23:54:23.391Z,8.05
2023-05-12T23:56:50.512Z,8.23
2023-05-12T23:59:24.098Z,7.50
